Time;durP1;ratioP1;P1;durP2;ratioP2;P2;SDS_P1;SDS_P2;PMS_P1;PMS_P2;Temp;Humidity;BMP_temperature;BMP_pressure;BME280_temperature;BME280_humidity;BME280_pressure;Samples;Min_cycle;Max_cycle;Signal;HPM_P1;HPM_P2
2021/08/22 00:01:37;;;;;;;11.57;10.47;;;;;;;;;;2670586;46;20354;-80
2021/08/22 00:04:03;;;;;;;11.90;10.20;;;;;;;;;;2656587;38;20899;-79
2021/08/22 00:06:31;;;;;;;12.63;10.90;;;;;;;;;;2663174;30;20373;-79
2021/08/22 00:08:58;;;;;;;10.37;9.37;;;;;;;;;;2653107;38;20371;-79
2021/08/22 00:11:25;;;;;;;12.43;10.43;;;;;;;;;;2665683;30;20385;-79
2021/08/22 00:13:52;;;;;;;12.73;10.30;;;;;;;;;;2664029;31;21236;-79
2021/08/22 00:16:20;;;;;;;11.03;9.90;;;;;;;;;;2683109;38;20361;-80
2021/08/22 00:18:48;;;;;;;12.27;10.67;;;;;;;;;;2668858;30;20356;-80
2021/08/22 00:21:41;;;;;;;11.97;10.70;;;;;;;;;;2662073;30;20912;-79
2021/08/22 00:24:08;;;;;;;12.17;10.97;;;;;;;;;;2662466;38;20458;-80
2021/08/22 00:26:40;;;;;;;14.07;10.80;;;;;;;;;;2663486;30;20365;-80
2021/08/22 00:29:06;;;;;;;10.10;9.20;;;;;;;;;;2655814;38;20361;-80
2021/08/22 00:31:32;;;;;;;9.77;8.10;;;;;;;;;;2649411;30;20393;-80
2021/08/22 00:34:17;;;;;;;8.60;7.70;;;;;;;;;;2670050;38;20358;-80
2021/08/22 00:36:43;;;;;;;8.27;7.47;;;;;;;;;;2719588;30;20352;-81
2021/08/22 00:39:10;;;;;;;7.33;6.63;;;;;;;;;;2679301;46;20381;-79
2021/08/22 00:41:38;;;;;;;7.90;7.10;;;;;;;;;;2651773;30;20382;-81
2021/08/22 00:44:04;;;;;;;7.73;6.90;;;;;;;;;;2660430;30;20338;-79
2021/08/22 00:46:36;;;;;;;5.73;5.20;;;;;;;;;;2676962;38;20369;-80
2021/08/22 00:49:05;;;;;;;6.30;5.70;;;;;;;;;;2676087;38;20357;-79
2021/08/22 00:51:31;;;;;;;6.10;5.50;;;;;;;;;;2714458;30;20373;-80
2021/08/22 00:53:57;;;;;;;6.23;5.03;;;;;;;;;;2701603;38;20380;-81
2021/08/22 00:56:24;;;;;;;5.27;4.80;;;;;;;;;;2685266;30;20427;-81
2021/08/22 00:58:51;;;;;;;5.87;5.27;;;;;;;;;;2711566;38;20334;-79
2021/08/22 01:01:36;;;;;;;4.57;4.17;;;;;;;;;;2692218;30;20346;-80
2021/08/22 01:27:41;;;;;;;6.33;5.33;;;;;;;;;;2665655;30;20450;31
2021/08/22 01:30:17;;;;;;;6.50;5.80;;;;;;;;;;2670139;30;20484;31
2021/08/22 02:11:56;;;;;;;4.67;4.27;;;;;;;;;;2642481;30;20421;31
2021/08/22 02:14:34;;;;;;;5.93;5.00;;;;;;;;;;2649390;30;20377;31
2021/08/22 02:17:11;;;;;;;4.80;4.40;;;;;;;;;;2656663;30;20433;31
2021/08/22 02:53:32;;;;;;;4.23;3.87;;;;;;;;;;2622765;38;20413;31
2021/08/22 03:03:48;;;;;;;4.20;3.90;;;;;;;;;;2654215;38;20536;31
2021/08/22 03:08:56;;;;;;;5.17;3.97;;;;;;;;;;2648202;38;20377;31
2021/08/22 03:11:31;;;;;;;4.93;4.30;;;;;;;;;;2673988;38;20655;31
2021/08/22 03:14:06;;;;;;;4.40;4.00;;;;;;;;;;2664050;30;20402;31
2021/08/22 03:24:17;;;;;;;15.87;10.23;;;;;;;;;;2736978;38;21315;-81
2021/08/22 03:29:24;;;;;;;19.10;12.30;;;;;;;;;;2678386;38;20985;31
2021/08/22 03:31:57;;;;;;;17.80;13.30;;;;;;;;;;2654689;38;20382;31
2021/08/22 03:39:31;;;;;;;21.87;16.60;;;;;;;;;;2686042;38;23637;31
2021/08/22 03:44:38;;;;;;;26.30;18.40;;;;;;;;;;2662144;38;21828;31
2021/08/22 03:47:12;;;;;;;29.23;20.73;;;;;;;;;;2659156;30;20407;31
2021/08/22 03:52:19;;;;;;;29.17;22.60;;;;;;;;;;2647846;30;23073;31
2021/08/22 03:57:26;;;;;;;32.97;23.57;;;;;;;;;;2667364;38;20370;31
2021/08/22 04:05:11;;;;;;;40.90;28.10;;;;;;;;;;2619617;30;20855;31
2021/08/22 04:12:49;;;;;;;37.90;28.57;;;;;;;;;;2653364;30;21985;-80
2021/08/22 04:15:23;;;;;;;38.93;27.93;;;;;;;;;;2708376;38;21073;-80
2021/08/22 04:23:07;;;;;;;37.50;29.50;;;;;;;;;;2668204;30;21253;31
2021/08/22 04:25:43;;;;;;;34.53;25.80;;;;;;;;;;2643568;30;21285;31
2021/08/22 04:30:42;;;;;;;33.90;27.30;;;;;;;;;;2882393;30;20370;-80
2021/08/22 04:38:37;;;;;;;32.60;24.35;;;;;;;;;;2656056;38;20417;31
2021/08/22 04:41:20;;;;;;;30.13;24.90;;;;;;;;;;2669816;38;23534;-77
2021/08/22 04:43:59;;;;;;;31.50;25.10;;;;;;;;;;2636918;38;20517;31
2021/08/22 04:46:32;;;;;;;30.33;21.80;;;;;;;;;;2679790;38;22519;31
2021/08/22 04:54:22;;;;;;;28.60;22.43;;;;;;;;;;2681787;38;21351;-79
2021/08/22 04:57:01;;;;;;;22.70;20.27;;;;;;;;;;2657473;38;20689;-79
2021/08/22 04:59:28;;;;;;;25.30;20.60;;;;;;;;;;2695164;30;20342;-80
2021/08/22 05:01:54;;;;;;;26.70;22.73;;;;;;;;;;2689317;30;20548;-81
2021/08/22 05:04:22;;;;;;;29.13;20.93;;;;;;;;;;2706046;38;21267;-81
2021/08/22 05:06:50;;;;;;;26.90;21.37;;;;;;;;;;2667440;38;20353;-81
2021/08/22 05:09:16;;;;;;;26.53;20.30;;;;;;;;;;2686809;30;20347;-81
2021/08/22 05:11:42;;;;;;;28.70;22.30;;;;;;;;;;2748293;30;20350;-81
2021/08/22 05:14:08;;;;;;;26.27;22.70;;;;;;;;;;2719740;38;20369;-80
2021/08/22 05:16:41;;;;;;;31.57;25.17;;;;;;;;;;2680616;38;20423;-81
2021/08/22 05:19:07;;;;;;;28.10;23.60;;;;;;;;;;2695444;38;20408;-81
2021/08/22 05:24:04;;;;;;;31.90;24.37;;;;;;;;;;2725487;30;20362;-80
2021/08/22 05:26:32;;;;;;;29.47;23.67;;;;;;;;;;2667240;38;20909;-82
2021/08/22 05:29:08;;;;;;;28.73;22.20;;;;;;;;;;2698133;38;20346;-82
2021/08/22 05:31:36;;;;;;;25.93;23.13;;;;;;;;;;2716931;30;20345;-82
2021/08/22 05:34:03;;;;;;;30.97;24.07;;;;;;;;;;2703112;38;20352;-82
2021/08/22 05:36:58;;;;;;;27.43;22.37;;;;;;;;;;2726424;38;21837;-80
2021/08/22 05:39:26;;;;;;;30.20;22.97;;;;;;;;;;2711517;38;21032;-80
2021/08/22 05:41:56;;;;;;;33.13;22.93;;;;;;;;;;2722811;30;20364;-80
2021/08/22 05:44:24;;;;;;;36.27;25.67;;;;;;;;;;2675130;38;20357;-80
2021/08/22 05:46:53;;;;;;;29.17;21.83;;;;;;;;;;2698326;30;20354;-80
2021/08/22 05:49:19;;;;;;;23.00;20.57;;;;;;;;;;2800677;30;20347;-80
2021/08/22 05:54:33;;;;;;;28.83;21.30;;;;;;;;;;2682358;30;20355;-80
2021/08/22 05:57:00;;;;;;;28.20;22.60;;;;;;;;;;2721220;38;20420;-81
2021/08/22 05:59:26;;;;;;;25.73;21.40;;;;;;;;;;2699017;30;20498;-80
2021/08/22 06:01:52;;;;;;;25.80;21.37;;;;;;;;;;2710549;38;20349;-80
2021/08/22 06:09:52;;;;;;;27.80;20.77;;;;;;;;;;2712706;30;20490;-79
2021/08/22 06:14:59;;;;;;;24.07;18.70;;;;;;;;;;2679756;38;21166;-82
2021/08/22 06:17:27;;;;;;;28.37;20.60;;;;;;;;;;2676513;38;20365;-81
2021/08/22 06:20:03;;;;;;;24.80;19.80;;;;;;;;;;2682448;30;20472;-80
2021/08/22 06:22:30;;;;;;;25.67;20.53;;;;;;;;;;2651987;38;20370;-80
2021/08/22 06:24:56;;;;;;;22.90;20.10;;;;;;;;;;2686515;38;20357;-80
2021/08/22 06:27:22;;;;;;;29.30;21.27;;;;;;;;;;2696425;30;20464;-80
2021/08/22 06:30:00;;;;;;;29.97;23.87;;;;;;;;;;2687264;30;20343;-81
2021/08/22 06:32:26;;;;;;;28.03;21.50;;;;;;;;;;2690220;30;20399;-80
2021/08/22 06:34:54;;;;;;;24.70;21.20;;;;;;;;;;2668982;30;20357;-81
2021/08/22 06:37:29;;;;;;;27.60;22.20;;;;;;;;;;2658935;38;20367;-81
2021/08/22 06:39:55;;;;;;;26.90;20.33;;;;;;;;;;2660105;38;20358;-80
2021/08/22 06:42:21;;;;;;;27.03;20.67;;;;;;;;;;2657819;30;20459;-81
2021/08/22 06:44:47;;;;;;;25.80;21.50;;;;;;;;;;2666512;30;21565;-81
2021/08/22 06:47:42;;;;;;;24.83;20.00;;;;;;;;;;2662037;38;20345;-80
2021/08/22 06:50:08;;;;;;;28.47;23.00;;;;;;;;;;2664515;30;20515;-81
2021/08/22 06:52:34;;;;;;;25.70;22.87;;;;;;;;;;2674259;38;20349;-81
2021/08/22 06:55:00;;;;;;;26.30;21.13;;;;;;;;;;2668390;30;20537;-82
2021/08/22 06:57:26;;;;;;;27.07;22.80;;;;;;;;;;2678382;30;20405;-80
2021/08/22 06:59:55;;;;;;;28.07;22.13;;;;;;;;;;2658636;30;20944;-80
2021/08/22 07:02:21;;;;;;;27.93;22.30;;;;;;;;;;2656178;30;20385;-80
2021/08/22 07:05:14;;;;;;;25.40;22.30;;;;;;;;;;2653897;30;20366;-79
2021/08/22 07:07:49;;;;;;;28.57;23.43;;;;;;;;;;2657347;30;20379;-80
2021/08/22 07:10:15;;;;;;;27.50;21.23;;;;;;;;;;2671369;30;21180;-80
2021/08/22 07:12:41;;;;;;;25.20;21.80;;;;;;;;;;2673754;38;20449;-80
2021/08/22 07:15:14;;;;;;;23.80;20.80;;;;;;;;;;2662077;30;21214;-79
2021/08/22 07:17:40;;;;;;;24.87;20.50;;;;;;;;;;2659778;30;20378;-80
2021/08/22 07:20:08;;;;;;;27.00;19.50;;;;;;;;;;2665045;30;21139;-81
2021/08/22 07:22:37;;;;;;;25.67;21.47;;;;;;;;;;2662123;38;21288;-80
2021/08/22 07:25:04;;;;;;;23.53;20.20;;;;;;;;;;2667142;30;20351;-80
2021/08/22 07:27:31;;;;;;;22.87;20.47;;;;;;;;;;2672542;30;20354;-81
2021/08/22 07:29:57;;;;;;;26.10;21.67;;;;;;;;;;2662172;30;20488;-80
2021/08/22 07:32:23;;;;;;;25.27;22.57;;;;;;;;;;2653470;46;20346;-80
2021/08/22 07:34:59;;;;;;;23.83;21.00;;;;;;;;;;2658584;30;20374;-80
2021/08/22 07:37:25;;;;;;;24.60;21.00;;;;;;;;;;2661218;38;20366;-80
2021/08/22 07:40:00;;;;;;;27.10;22.70;;;;;;;;;;2660588;38;20359;-81
2021/08/22 07:42:27;;;;;;;27.03;24.20;;;;;;;;;;2660379;30;20354;-80
2021/08/22 07:44:53;;;;;;;32.70;24.03;;;;;;;;;;2649064;30;20416;-81
2021/08/22 07:47:19;;;;;;;27.27;24.30;;;;;;;;;;2656790;30;20346;-81
2021/08/22 07:49:46;;;;;;;26.60;23.63;;;;;;;;;;2665510;38;20926;-79
2021/08/22 07:52:12;;;;;;;24.83;21.37;;;;;;;;;;2651642;38;20373;-79
2021/08/22 07:54:39;;;;;;;24.00;21.40;;;;;;;;;;2665513;30;20389;-79
2021/08/22 07:57:05;;;;;;;23.77;21.27;;;;;;;;;;2661989;38;22124;-79
2021/08/22 07:59:31;;;;;;;22.63;20.37;;;;;;;;;;2655852;30;20429;-79
2021/08/22 08:01:57;;;;;;;23.03;20.47;;;;;;;;;;2653028;30;21274;-79
2021/08/22 08:05:00;;;;;;;24.10;20.57;;;;;;;;;;2662386;38;20374;-81
2021/08/22 08:07:26;;;;;;;22.30;20.00;;;;;;;;;;2650836;38;20417;-80
2021/08/22 08:09:52;;;;;;;23.63;20.90;;;;;;;;;;2657468;38;20387;-81
2021/08/22 08:12:45;;;;;;;22.17;19.80;;;;;;;;;;2646306;38;20520;-81
2021/08/22 08:15:12;;;;;;;21.40;19.30;;;;;;;;;;2664237;30;20412;-80
2021/08/22 08:17:39;;;;;;;24.30;21.90;;;;;;;;;;2660390;38;20366;-80
2021/08/22 08:20:05;;;;;;;23.57;21.10;;;;;;;;;;2656219;38;20375;-81
2021/08/22 08:22:31;;;;;;;22.57;20.37;;;;;;;;;;2659683;30;20347;-80
2021/08/22 08:24:58;;;;;;;21.10;18.93;;;;;;;;;;2663222;38;20370;-80
2021/08/22 08:27:24;;;;;;;21.37;19.00;;;;;;;;;;2664802;30;20412;-80
2021/08/22 08:29:51;;;;;;;21.83;18.30;;;;;;;;;;2652600;38;20358;-80
2021/08/22 08:32:18;;;;;;;24.33;19.00;;;;;;;;;;2672439;38;20912;-80
2021/08/22 08:34:45;;;;;;;19.47;17.53;;;;;;;;;;2667402;38;20351;-80
2021/08/22 08:37:11;;;;;;;20.80;18.07;;;;;;;;;;2658075;38;20494;-80
2021/08/22 08:39:40;;;;;;;24.13;17.10;;;;;;;;;;2650516;30;20418;-80
2021/08/22 08:42:26;;;;;;;17.30;15.77;;;;;;;;;;2654874;30;20355;-80
2021/08/22 08:44:54;;;;;;;20.53;17.93;;;;;;;;;;2659853;38;20394;-81
2021/08/22 08:47:26;;;;;;;19.07;16.43;;;;;;;;;;2662484;30;21314;-81
2021/08/22 08:50:11;;;;;;;19.53;16.43;;;;;;;;;;2653153;38;20363;-81
2021/08/22 08:52:43;;;;;;;18.20;16.30;;;;;;;;;;2662129;38;20900;-80
2021/08/22 08:55:27;;;;;;;18.00;16.10;;;;;;;;;;2669291;38;20391;-81
2021/08/22 08:57:57;;;;;;;17.70;15.00;;;;;;;;;;2669435;38;20561;-81
2021/08/22 09:00:36;;;;;;;15.53;14.10;;;;;;;;;;2660526;38;20355;-81
2021/08/22 09:03:05;;;;;;;18.10;13.13;;;;;;;;;;2668498;30;20379;-81
2021/08/22 09:05:34;;;;;;;15.53;13.50;;;;;;;;;;2679672;38;20352;-81
2021/08/22 09:08:19;;;;;;;13.80;12.40;;;;;;;;;;2667249;38;20364;-81
2021/08/22 09:11:04;;;;;;;12.23;10.93;;;;;;;;;;2684893;30;20341;-82
2021/08/22 09:13:49;;;;;;;12.80;10.00;;;;;;;;;;2677965;38;20355;-80
2021/08/22 09:16:38;;;;;;;10.67;9.40;;;;;;;;;;2675270;38;20375;-79
2021/08/22 09:19:19;;;;;;;8.80;8.03;;;;;;;;;;2676521;30;20382;-81
2021/08/22 09:21:54;;;;;;;9.00;8.10;;;;;;;;;;2686156;30;20399;-81
2021/08/22 09:24:39;;;;;;;7.70;6.93;;;;;;;;;;2669729;30;20335;-80
2021/08/22 09:27:24;;;;;;;7.47;6.83;;;;;;;;;;2654753;38;20351;-81
2021/08/22 09:30:10;;;;;;;6.97;6.37;;;;;;;;;;2659076;30;20355;-80
2021/08/22 09:32:57;;;;;;;7.03;6.33;;;;;;;;;;2656504;30;20422;-80
2021/08/22 09:35:41;;;;;;;7.47;6.87;;;;;;;;;;2648716;38;20505;-79
2021/08/22 09:38:36;;;;;;;7.40;5.80;;;;;;;;;;2650782;38;20359;-80
2021/08/22 09:41:02;;;;;;;6.70;6.20;;;;;;;;;;2648254;30;21020;-80
2021/08/22 09:43:47;;;;;;;6.70;6.00;;;;;;;;;;2644913;30;20383;-80
2021/08/22 09:46:33;;;;;;;6.73;5.47;;;;;;;;;;2650466;38;20748;-79
2021/08/22 09:49:19;;;;;;;7.07;6.40;;;;;;;;;;2648357;38;20919;-81
2021/08/22 09:52:18;;;;;;;6.30;5.50;;;;;;;;;;2645440;38;21224;-81
2021/08/22 09:54:44;;;;;;;6.70;6.07;;;;;;;;;;2650057;30;20352;-80
2021/08/22 09:57:31;;;;;;;6.47;5.87;;;;;;;;;;2650361;30;20355;-80
2021/08/22 10:00:04;;;;;;;8.00;7.37;;;;;;;;;;2661157;38;20389;-81
2021/08/22 10:02:35;;;;;;;7.57;6.97;;;;;;;;;;2671759;30;20367;-81
2021/08/22 10:05:10;;;;;;;7.93;5.60;;;;;;;;;;2652011;38;20577;-80
2021/08/22 10:07:49;;;;;;;7.87;7.07;;;;;;;;;;2664985;30;20367;-80
2021/08/22 10:10:18;;;;;;;6.53;5.87;;;;;;;;;;2670438;30;20434;-79
2021/08/22 10:12:46;;;;;;;5.33;4.90;;;;;;;;;;2659405;31;20367;-79
2021/08/22 10:15:17;;;;;;;7.50;6.80;;;;;;;;;;2652068;30;20355;-81
2021/08/22 10:17:47;;;;;;;8.33;6.17;;;;;;;;;;2670134;30;20360;-78
2021/08/22 10:20:13;;;;;;;6.10;5.60;;;;;;;;;;2651748;30;20355;-79
2021/08/22 10:22:41;;;;;;;7.00;6.40;;;;;;;;;;2652639;30;20355;-79
2021/08/22 10:25:20;;;;;;;6.20;5.70;;;;;;;;;;2669419;30;21274;-79
2021/08/22 10:27:50;;;;;;;8.50;7.70;;;;;;;;;;2659972;30;20359;-80
2021/08/22 10:30:17;;;;;;;6.80;5.77;;;;;;;;;;2658444;38;20434;-79
2021/08/22 10:33:04;;;;;;;6.13;5.63;;;;;;;;;;2654221;38;21260;-79
2021/08/22 10:35:32;;;;;;;5.40;4.80;;;;;;;;;;2648970;30;20359;-80
2021/08/22 10:38:24;;;;;;;5.63;5.20;;;;;;;;;;2654197;38;20409;-80
2021/08/22 10:40:51;;;;;;;5.80;5.30;;;;;;;;;;2656518;38;20379;-79
2021/08/22 10:43:20;;;;;;;5.37;4.87;;;;;;;;;;2654328;30;20370;-79
2021/08/22 10:45:48;;;;;;;4.80;4.50;;;;;;;;;;2654363;38;20371;-79
2021/08/22 10:48:26;;;;;;;6.60;5.37;;;;;;;;;;2663200;38;20600;-79
2021/08/22 10:50:58;;;;;;;5.50;5.00;;;;;;;;;;2654737;30;20350;-80
2021/08/22 10:53:24;;;;;;;5.47;5.07;;;;;;;;;;2659905;38;20390;-79
2021/08/22 10:55:50;;;;;;;5.37;4.97;;;;;;;;;;2653843;38;20375;-81
2021/08/22 10:58:17;;;;;;;5.20;4.80;;;;;;;;;;2658022;30;20390;-81
2021/08/22 11:00:44;;;;;;;5.00;4.63;;;;;;;;;;2667113;30;20394;-81
2021/08/22 11:03:19;;;;;;;4.70;4.30;;;;;;;;;;2653921;30;20378;-80
2021/08/22 11:05:46;;;;;;;4.37;4.07;;;;;;;;;;2650152;38;20962;-79
2021/08/22 11:08:16;;;;;;;5.10;4.70;;;;;;;;;;2654404;30;20384;-81
2021/08/22 11:10:56;;;;;;;4.80;4.50;;;;;;;;;;2646125;30;21496;-80
2021/08/22 11:13:23;;;;;;;5.03;3.50;;;;;;;;;;2663441;38;20371;-79
2021/08/22 11:15:50;;;;;;;4.70;4.20;;;;;;;;;;2663322;38;20422;-79
2021/08/22 11:18:17;;;;;;;5.17;4.50;;;;;;;;;;2663618;30;20359;-80
2021/08/22 11:20:44;;;;;;;4.83;4.43;;;;;;;;;;2660995;38;20370;-81
2021/08/22 11:23:17;;;;;;;3.87;3.57;;;;;;;;;;2660982;30;20365;-81
2021/08/22 11:25:51;;;;;;;4.60;3.90;;;;;;;;;;2661851;38;21358;-80
2021/08/22 11:28:18;;;;;;;6.67;6.07;;;;;;;;;;2651580;30;20395;-80
2021/08/22 11:30:54;;;;;;;6.80;6.17;;;;;;;;;;2658000;30;20845;-80
2021/08/22 11:33:23;;;;;;;6.27;5.67;;;;;;;;;;2668023;30;20355;-80
2021/08/22 11:35:50;;;;;;;6.10;5.50;;;;;;;;;;2658747;38;20363;-80
2021/08/22 11:38:17;;;;;;;7.20;6.07;;;;;;;;;;2661352;30;20351;-80
2021/08/22 11:40:44;;;;;;;5.83;5.33;;;;;;;;;;2661431;30;20358;-79
2021/08/22 11:43:14;;;;;;;5.73;5.33;;;;;;;;;;2659207;38;20347;-80
2021/08/22 11:45:53;;;;;;;4.07;3.77;;;;;;;;;;2652036;30;20379;-80
2021/08/22 11:48:20;;;;;;;5.07;4.57;;;;;;;;;;2649064;38;20414;-79
2021/08/22 11:50:48;;;;;;;6.03;4.50;;;;;;;;;;2654656;30;20440;-80
2021/08/22 11:53:19;;;;;;;7.10;4.17;;;;;;;;;;2653989;30;20767;-80
2021/08/22 11:55:48;;;;;;;5.80;4.70;;;;;;;;;;2648595;38;20379;-80
2021/08/22 11:58:15;;;;;;;7.43;6.73;;;;;;;;;;2650968;30;20437;-80
2021/08/22 12:00:50;;;;;;;7.40;6.70;;;;;;;;;;2664658;30;20371;-80
2021/08/22 12:03:18;;;;;;;7.87;4.50;;;;;;;;;;2659072;38;21204;-80
2021/08/22 12:06:07;;;;;;;5.50;4.20;;;;;;;;;;2660869;30;20451;-81
2021/08/22 12:08:34;;;;;;;3.93;3.63;;;;;;;;;;2654374;30;20497;-80
2021/08/22 12:11:13;;;;;;;6.07;5.67;;;;;;;;;;2658154;38;20445;-81
2021/08/22 12:13:44;;;;;;;6.27;5.87;;;;;;;;;;2661105;30;20379;-80
2021/08/22 12:16:28;;;;;;;5.50;5.20;;;;;;;;;;2660330;38;20370;-80
2021/08/22 12:18:55;;;;;;;5.40;4.93;;;;;;;;;;2652619;30;20383;-81
2021/08/22 12:24:29;;;;;;;5.47;5.07;;;;;;;;;;2640315;30;20383;-79
2021/08/22 12:26:56;;;;;;;5.60;5.20;;;;;;;;;;2662598;30;20359;-81
2021/08/22 12:29:41;;;;;;;5.20;4.80;;;;;;;;;;2653009;30;20395;-80
2021/08/22 12:32:11;;;;;;;5.73;5.23;;;;;;;;;;2660323;30;20775;-81
2021/08/22 12:34:37;;;;;;;4.73;4.33;;;;;;;;;;2647214;30;20352;-81
2021/08/22 12:37:10;;;;;;;6.00;5.50;;;;;;;;;;2643757;30;20359;-80
2021/08/22 12:39:38;;;;;;;5.17;4.87;;;;;;;;;;2659660;30;20360;-80
2021/08/22 12:42:04;;;;;;;5.70;5.30;;;;;;;;;;2651977;30;20363;-80
2021/08/22 12:44:31;;;;;;;5.73;5.33;;;;;;;;;;2668217;30;20379;-79
2021/08/22 12:47:00;;;;;;;5.60;5.10;;;;;;;;;;2652879;30;20389;-80
2021/08/22 12:49:27;;;;;;;6.37;5.87;;;;;;;;;;2649110;38;20826;-80
2021/08/22 12:52:26;;;;;;;7.50;6.87;;;;;;;;;;2652435;38;20867;-81
2021/08/22 12:55:02;;;;;;;7.90;7.30;;;;;;;;;;2658317;38;20426;-79
2021/08/22 12:57:28;;;;;;;6.70;6.10;;;;;;;;;;2657023;30;20350;-80
2021/08/22 12:59:54;;;;;;;7.60;6.90;;;;;;;;;;2657177;30;20427;-80
2021/08/22 13:02:20;;;;;;;6.70;6.20;;;;;;;;;;2650360;38;20486;-79
2021/08/22 13:07:17;;;;;;;7.60;7.10;;;;;;;;;;2745285;38;20383;-81
2021/08/22 13:09:47;;;;;;;7.80;7.00;;;;;;;;;;2727730;30;20358;-81
2021/08/22 13:12:14;;;;;;;6.63;6.07;;;;;;;;;;2753127;38;20379;-82
2021/08/22 13:22:16;;;;;;;5.90;5.40;;;;;;;;;;2656218;30;20367;-81
2021/08/22 13:24:42;;;;;;;6.30;5.90;;;;;;;;;;2652360;30;20397;-81
2021/08/22 13:27:08;;;;;;;6.53;6.13;;;;;;;;;;2667618;38;21347;-81
2021/08/22 13:29:35;;;;;;;8.03;7.43;;;;;;;;;;2658402;30;20497;-81
2021/08/22 13:32:01;;;;;;;6.57;6.07;;;;;;;;;;2659654;46;20379;-81
2021/08/22 13:34:28;;;;;;;6.43;6.03;;;;;;;;;;2661696;30;20383;-80
2021/08/22 13:36:54;;;;;;;6.00;5.03;;;;;;;;;;2661999;30;20350;-81
2021/08/22 13:39:48;;;;;;;5.10;4.60;;;;;;;;;;2662259;38;20385;-80
2021/08/22 13:42:14;;;;;;;6.80;6.30;;;;;;;;;;2659305;30;20367;-82
2021/08/22 13:44:41;;;;;;;7.40;6.70;;;;;;;;;;2662385;30;20340;-80
2021/08/22 13:47:07;;;;;;;7.17;6.57;;;;;;;;;;2666234;38;20400;-80
2021/08/22 13:49:33;;;;;;;7.43;6.83;;;;;;;;;;2667481;38;20362;-82
2021/08/22 13:52:00;;;;;;;7.50;7.00;;;;;;;;;;2670861;30;20352;-82
2021/08/22 13:54:26;;;;;;;7.80;7.30;;;;;;;;;;2668361;38;21249;-81
2021/08/22 13:56:52;;;;;;;6.47;5.60;;;;;;;;;;2661805;30;20407;-81
2021/08/22 13:59:19;;;;;;;6.00;5.40;;;;;;;;;;2671064;30;20354;-81
2021/08/22 14:01:48;;;;;;;6.07;5.47;;;;;;;;;;2659875;38;20355;-80
2021/08/22 14:04:14;;;;;;;6.30;5.70;;;;;;;;;;2655615;30;21278;-79
2021/08/22 14:06:40;;;;;;;6.27;5.50;;;;;;;;;;2669449;30;20458;-80
2021/08/22 14:09:06;;;;;;;6.13;5.63;;;;;;;;;;2659106;30;20403;-80
2021/08/22 14:11:32;;;;;;;5.23;4.40;;;;;;;;;;2682479;30;20362;-80
2021/08/22 14:13:59;;;;;;;6.07;5.47;;;;;;;;;;2670726;30;20363;-80
2021/08/22 14:16:27;;;;;;;6.10;5.50;;;;;;;;;;2675406;30;20419;-80
2021/08/22 14:18:55;;;;;;;4.97;4.40;;;;;;;;;;2673000;30;20362;-80
2021/08/22 14:21:23;;;;;;;4.77;4.37;;;;;;;;;;2653765;30;22427;-81
2021/08/22 14:23:49;;;;;;;9.10;4.97;;;;;;;;;;2687388;38;20818;-80
2021/08/22 14:26:15;;;;;;;10.80;5.03;;;;;;;;;;2678207;30;20845;-80
2021/08/22 14:28:41;;;;;;;5.73;5.23;;;;;;;;;;2676949;30;21470;-80
2021/08/22 14:31:07;;;;;;;5.20;4.70;;;;;;;;;;2671338;30;20386;-80
2021/08/22 14:33:34;;;;;;;5.73;5.23;;;;;;;;;;2665481;30;21198;-80
2021/08/22 14:36:00;;;;;;;8.03;5.40;;;;;;;;;;2680964;38;20451;-80
2021/08/22 14:38:27;;;;;;;4.80;4.40;;;;;;;;;;2664271;30;20432;-80
2021/08/22 14:40:55;;;;;;;7.13;3.77;;;;;;;;;;2676104;30;20350;-80
2021/08/22 14:43:21;;;;;;;9.37;4.70;;;;;;;;;;2656681;38;20397;-80
2021/08/22 14:45:47;;;;;;;5.03;4.30;;;;;;;;;;2679102;30;20390;-80
2021/08/22 14:48:21;;;;;;;7.23;6.60;;;;;;;;;;2651643;30;20401;-81
2021/08/22 14:50:57;;;;;;;12.20;9.67;;;;;;;;;;2666445;30;20382;-80
2021/08/22 14:53:24;;;;;;;12.43;11.10;;;;;;;;;;2660029;38;20371;-80
2021/08/22 14:55:51;;;;;;;7.23;5.53;;;;;;;;;;2658499;38;20366;-80
2021/08/22 14:58:17;;;;;;;9.03;6.23;;;;;;;;;;2661829;30;21013;-80
2021/08/22 15:00:44;;;;;;;6.67;6.10;;;;;;;;;;2653177;30;20366;-81
2021/08/22 15:03:13;;;;;;;5.67;5.10;;;;;;;;;;2660448;30;21203;-81
2021/08/22 15:05:40;;;;;;;5.87;5.37;;;;;;;;;;2657477;30;21840;-80
2021/08/22 15:08:06;;;;;;;5.43;4.93;;;;;;;;;;2663899;30;20339;-81
2021/08/22 15:10:32;;;;;;;5.60;4.27;;;;;;;;;;2686967;30;20355;-80
2021/08/22 15:12:59;;;;;;;6.37;5.60;;;;;;;;;;2676107;38;20413;-80
2021/08/22 15:15:26;;;;;;;7.30;4.57;;;;;;;;;;2680119;38;20344;-81
2021/08/22 15:17:52;;;;;;;5.57;5.13;;;;;;;;;;2682909;30;20361;-81
2021/08/22 15:20:18;;;;;;;6.13;5.63;;;;;;;;;;2664260;30;20360;-81
2021/08/22 15:22:50;;;;;;;9.80;4.20;;;;;;;;;;2666516;30;20702;31
2021/08/22 15:25:16;;;;;;;4.57;4.23;;;;;;;;;;2692377;38;20382;-81
2021/08/22 15:27:43;;;;;;;4.80;4.30;;;;;;;;;;2698541;38;20871;-80
2021/08/22 15:30:09;;;;;;;4.27;3.87;;;;;;;;;;2698211;38;20342;-80
2021/08/22 15:32:36;;;;;;;5.40;3.83;;;;;;;;;;2670554;38;20351;-80
2021/08/22 15:35:10;;;;;;;4.03;3.73;;;;;;;;;;2704731;30;20862;-80
2021/08/22 15:37:36;;;;;;;5.73;4.10;;;;;;;;;;2689881;30;20357;-80
2021/08/22 15:40:03;;;;;;;3.70;3.40;;;;;;;;;;2705446;38;20340;-81
2021/08/22 15:42:30;;;;;;;4.13;3.77;;;;;;;;;;2698604;30;20339;-81
2021/08/22 15:44:56;;;;;;;5.80;5.00;;;;;;;;;;2689858;38;20374;-80
2021/08/22 15:47:22;;;;;;;3.97;3.67;;;;;;;;;;2707651;30;20350;-80
2021/08/22 15:49:49;;;;;;;4.63;3.73;;;;;;;;;;2668490;38;20363;-80
2021/08/22 15:52:15;;;;;;;6.03;4.70;;;;;;;;;;2664718;30;20355;-80
2021/08/22 15:54:43;;;;;;;4.90;4.50;;;;;;;;;;2664751;38;20356;-80
2021/08/22 15:57:10;;;;;;;4.40;4.00;;;;;;;;;;2681835;38;21227;-79
2021/08/22 15:59:39;;;;;;;4.67;4.27;;;;;;;;;;2661416;38;20396;-80
2021/08/22 16:02:08;;;;;;;4.30;3.93;;;;;;;;;;2668527;38;20344;-80
2021/08/22 16:04:38;;;;;;;3.90;3.40;;;;;;;;;;2669841;30;20422;-80
2021/08/22 16:07:04;;;;;;;7.03;3.43;;;;;;;;;;2701844;30;20350;-79
2021/08/22 16:09:30;;;;;;;4.47;3.00;;;;;;;;;;2688968;38;20435;-79
2021/08/22 16:12:01;;;;;;;4.97;3.10;;;;;;;;;;2662659;38;20373;-80
2021/08/22 16:14:31;;;;;;;3.60;3.30;;;;;;;;;;2663891;38;21197;-79
2021/08/22 16:16:58;;;;;;;3.77;3.47;;;;;;;;;;2672855;38;20363;-80
2021/08/22 16:19:24;;;;;;;3.70;3.40;;;;;;;;;;2663110;38;20392;-80
2021/08/22 16:21:51;;;;;;;3.73;3.37;;;;;;;;;;2675334;30;20366;-82
2021/08/22 16:24:17;;;;;;;3.97;3.63;;;;;;;;;;2651134;38;21169;-82
2021/08/22 16:26:43;;;;;;;4.73;3.63;;;;;;;;;;2662452;30;20359;-82
2021/08/22 16:29:10;;;;;;;5.27;3.80;;;;;;;;;;2667486;38;20406;-81
2021/08/22 16:31:37;;;;;;;3.97;3.57;;;;;;;;;;2674029;30;20363;-81
2021/08/22 16:34:05;;;;;;;3.43;3.13;;;;;;;;;;2666285;30;20359;-81
2021/08/22 16:36:32;;;;;;;3.40;3.10;;;;;;;;;;2679626;30;21177;-81
2021/08/22 16:38:58;;;;;;;4.47;3.17;;;;;;;;;;2673534;30;20355;-81
2021/08/22 16:41:24;;;;;;;4.27;3.00;;;;;;;;;;2689698;30;20353;-81
2021/08/22 16:43:51;;;;;;;2.50;2.30;;;;;;;;;;2672636;38;20566;-80
2021/08/22 16:46:24;;;;;;;6.60;3.63;;;;;;;;;;2685824;30;20362;-81
2021/08/22 16:48:50;;;;;;;6.00;3.03;;;;;;;;;;2674184;38;20376;-80
2021/08/22 16:51:16;;;;;;;3.67;2.97;;;;;;;;;;2672144;38;20485;-81
2021/08/22 16:53:52;;;;;;;4.93;4.03;;;;;;;;;;2687854;30;20430;-80
2021/08/22 16:56:18;;;;;;;4.13;3.73;;;;;;;;;;2664556;46;20365;-81
2021/08/22 16:58:46;;;;;;;3.63;3.10;;;;;;;;;;2667583;30;20363;-80
2021/08/22 17:01:14;;;;;;;4.40;3.57;;;;;;;;;;2687340;30;20374;-81
2021/08/22 17:03:41;;;;;;;4.10;3.80;;;;;;;;;;2691233;30;20415;-80
2021/08/22 17:06:09;;;;;;;3.77;3.47;;;;;;;;;;2689271;30;20386;-80
2021/08/22 17:08:36;;;;;;;7.87;3.40;;;;;;;;;;2703466;30;20378;-81
2021/08/22 17:11:04;;;;;;;4.43;4.03;;;;;;;;;;2692609;38;20492;-81
2021/08/22 17:13:30;;;;;;;3.90;3.60;;;;;;;;;;2689986;38;20952;-81
2021/08/22 17:15:59;;;;;;;3.60;3.30;;;;;;;;;;2673920;38;20414;-81
2021/08/22 17:18:25;;;;;;;4.70;3.37;;;;;;;;;;2691344;38;20359;-82
2021/08/22 17:20:55;;;;;;;7.63;5.70;;;;;;;;;;2664862;30;20403;-80
2021/08/22 17:23:21;;;;;;;3.60;3.30;;;;;;;;;;2683645;30;20346;-81
2021/08/22 17:25:55;;;;;;;3.80;3.50;;;;;;;;;;2653760;30;20886;31
2021/08/22 17:28:29;;;;;;;5.90;4.00;;;;;;;;;;2676598;30;20395;31
2021/08/22 17:34:10;;;;;;;5.07;4.67;;;;;;;;;;2672306;38;20422;-81
2021/08/22 17:36:37;;;;;;;4.80;4.30;;;;;;;;;;2737193;38;20377;-83
2021/08/22 17:39:05;;;;;;;4.30;3.90;;;;;;;;;;2705586;30;20374;-82
2021/08/22 17:44:06;;;;;;;5.37;4.83;;;;;;;;;;2756474;38;20366;-80
2021/08/22 17:49:04;;;;;;;11.20;7.23;;;;;;;;;;2662518;38;20772;-79
2021/08/22 17:54:00;;;;;;;12.00;9.67;;;;;;;;;;2652460;38;20381;-80
2021/08/22 17:56:26;;;;;;;13.60;9.30;;;;;;;;;;2656072;38;21183;-79
2021/08/22 17:59:19;;;;;;;10.03;8.90;;;;;;;;;;2646335;38;20371;-79
2021/08/22 18:01:48;;;;;;;12.20;10.07;;;16.50;99.90;;;;;;2657848;30;21328;-79
2021/08/22 18:04:16;;;;;;;10.90;9.07;;;16.60;99.90;;;;;;2665526;30;20871;-79
2021/08/22 18:06:42;;;;;;;12.50;8.93;;;16.70;99.90;;;;;;2666770;38;20357;-81
2021/08/22 18:09:09;;;;;;;11.90;9.90;;;16.60;99.90;;;;;;2678780;30;20370;-79